Maersk Bali — 9V7499 — position and weather

sailwx.info

Track history (hours):
 
Tides and Currents Weather Stations Pressure Air Temp Water Temp Dewpoint Dewpoint Depression Visibility Wind Speed Wind Dir Waves Ship Positions

Maersk Bali

Last reported at 2016-Jun-27 16:33 UTC. Time now 2016-Jun-27 16:54 UTC.
Position N 44°15' E 034°17'.

Length 223 m; draft 9.6 m.

Type: Cargo ship. MMSI: 563102000.

Date/timePositionNaut miles runAvg speedWind from/ knotsBaromVisibWave heightAir tempDewpointWater temp
2016-Jun-27 16:33N 44°15' E 034°17'5213.0
2016-Jun-27 12:33N 44°30' E 033°07'1614.9
2016-Jun-27 11:31N 44°42' E 032°53'3215.6
2016-Jun-27 09:26N 45°07' E 032°23'1415.5
2016-Jun-27 08:33N 45°17' E 032°10'1515.2
2016-Jun-27 07:34N 45°28' E 031°55'1714.5
2016-Jun-27 06:23N 45°39' E 031°37'1214.4
2016-Jun-27 05:33N 45°49' E 031°29'1414.5
2016-Jun-27 04:33N 45°60' E 031°14'1414.3
2016-Jun-27 03:33N 46°10' E 031°00'1313.2
2016-Jun-27 02:33N 46°23' E 030°55'1211.9
2016-Jun-27 01:34N 46°34' E 031°00'5 2.6
2016-Jun-26 23:33N 46°39' E 031°01'0 0.0
2016-Jun-26 22:34N 46°39' E 031°01'0 0.0
2016-Jun-26 21:32N 46°39' E 031°01'0 0.0
2016-Jun-26 20:19N 46°39' E 031°01'0 0.0
2016-Jun-26 18:10N 46°39' E 031°01'0 0.0
2016-Jun-26 17:19N 46°39' E 031°01'0 0.0
2016-Jun-26 16:15N 46°39' E 031°01'0 0.0
2016-Jun-26 15:28N 46°39' E 031°01'0 0.0
2016-Jun-26 14:34N 46°39' E 031°01'0 0.0
2016-Jun-26 13:22N 46°39' E 031°01'0 0.0
2016-Jun-26 12:33N 46°39' E 031°01'0 0.0
2016-Jun-26 11:33N 46°39' E 031°01'0 0.0
2016-Jun-26 10:32N 46°39' E 031°01'0 0.0
2016-Jun-26 09:33N 46°39' E 031°01'0 0.0
2016-Jun-26 08:33N 46°39' E 031°01'0 0.0
2016-Jun-26 07:34N 46°39' E 031°01'0 0.0
2016-Jun-26 06:33N 46°39' E 031°01'0 0.0
2016-Jun-26 05:34N 46°39' E 031°01'0 0.0
2016-Jun-26 04:33N 46°39' E 031°01'5 4.5
2016-Jun-26 03:34N 46°35' E 031°01'7 7.4
2016-Jun-26 02:33N 46°28' E 030°57'1211.6
2016-Jun-26 01:33N 46°16' E 030°58'1413.7
2016-Jun-26 00:34N 46°06' E 031°12'1413.9
2016-Jun-25 23:33N 45°53' E 031°09'1414.3
2016-Jun-25 22:33N 45°38' E 031°06'1414.4
2016-Jun-25 21:34N 45°24' E 031°03'27813.2
2016-Jun-25 00:28N 41°01' E 028°60'9 9.8
2016-Jun-24 23:32N 40°53' E 028°54'6 1.4
2016-Jun-24 19:11N 40°47' E 028°52'1 0.8
2016-Jun-24 18:29N 40°47' E 028°52'12 0.4
2016-Jun-23 13:31N 40°56' E 028°41'3 2.4
2016-Jun-23 12:22N 40°53' E 028°40'6 0.8
2016-Jun-23 04:29N 40°47' E 028°43'1111.1
2016-Jun-23 03:33N 40°46' E 028°57'1111.6
2016-Jun-23 02:33N 40°45' E 029°12'1111.3
2016-Jun-23 01:33N 40°45' E 029°27'8 0.7
2016-Jun-22 13:07N 40°45' E 029°38'710.5
2016-Jun-22 12:29N 40°45' E 029°30'1010.9
2016-Jun-22 11:33N 40°43' E 029°16'1211.3
2016-Jun-22 10:29N 40°41' E 029°01'30011.9
2016-Jun-21 09:19N 37°27' E 024°06'1315.4
2016-Jun-21 08:30N 37°16' E 023°59'1515.6
2016-Jun-21 07:33N 37°03' E 023°50'5117.1
2016-Jun-21 04:33N 36°15' E 023°29'41113.7
2016-Jun-19 22:30N 35°38' E 015°04'7 7.4
2016-Jun-19 21:33N 35°38' E 014°55'2 2.1
2016-Jun-19 20:33N 35°39' E 014°53'2 2.3
2016-Jun-19 19:31N 35°41' E 014°51'8 8.2
2016-Jun-19 18:33N 35°48' E 014°45'8 7.8
2016-Jun-19 17:33N 35°47' E 014°36'3 1.1
2016-Jun-19 14:32N 35°49' E 014°32'0 0.0
2016-Jun-19 04:29N 35°49' E 014°32'1 0.2
2016-Jun-18 22:22N 35°49' E 014°34'0 0.1
2016-Jun-18 21:32N 35°49' E 014°34'3 2.7
2016-Jun-18 20:33N 35°46' E 014°32'1010.4
2016-Jun-18 19:33N 35°47' E 014°20'1414.3
2016-Jun-18 18:33N 35°55' E 014°05'1414.4
2016-Jun-18 17:34N 36°03' E 013°50'1514.6
2016-Jun-18 16:33N 36°11' E 013°36'1414.4
2016-Jun-18 15:33N 36°20' E 013°21'1414.3
2016-Jun-18 14:33N 36°28' E 013°07'14714.4
2016-Jun-18 04:21N 37°33' E 010°22'1214.5
2016-Jun-18 03:32N 37°34' E 010°07'6514.7
2016-Jun-17 23:06N 37°20' E 008°47'  
Track history (hours):
 
Tides and Currents Weather Stations Pressure Air Temp Water Temp Dewpoint Dewpoint Depression Visibility Wind Speed Wind Dir Waves Ship Positions

Maersk Bali

Last reported at 2016-Jun-27 16:33 UTC. Time now 2016-Jun-27 16:54 UTC.
Position N 44°15' E 034°17'.

Length 223 m; draft 9.6 m.

Type: Cargo ship. MMSI: 563102000.

Date/timePositionNaut miles runAvg speedWind from/ knotsBaromVisibWave heightAir tempDewpointWater temp
2016-Jun-27 16:33N 44°15' E 034°17'5213.0
2016-Jun-27 12:33N 44°30' E 033°07'1614.9
2016-Jun-27 11:31N 44°42' E 032°53'3215.6
2016-Jun-27 09:26N 45°07' E 032°23'1415.5
2016-Jun-27 08:33N 45°17' E 032°10'1515.2
2016-Jun-27 07:34N 45°28' E 031°55'1714.5
2016-Jun-27 06:23N 45°39' E 031°37'1214.4
2016-Jun-27 05:33N 45°49' E 031°29'1414.5
2016-Jun-27 04:33N 45°60' E 031°14'1414.3
2016-Jun-27 03:33N 46°10' E 031°00'1313.2
2016-Jun-27 02:33N 46°23' E 030°55'1211.9
2016-Jun-27 01:34N 46°34' E 031°00'5 2.6
2016-Jun-26 23:33N 46°39' E 031°01'0 0.0
2016-Jun-26 22:34N 46°39' E 031°01'0 0.0
2016-Jun-26 21:32N 46°39' E 031°01'0 0.0
2016-Jun-26 20:19N 46°39' E 031°01'0 0.0
2016-Jun-26 18:10N 46°39' E 031°01'0 0.0
2016-Jun-26 17:19N 46°39' E 031°01'0 0.0
2016-Jun-26 16:15N 46°39' E 031°01'0 0.0
2016-Jun-26 15:28N 46°39' E 031°01'0 0.0
2016-Jun-26 14:34N 46°39' E 031°01'0 0.0
2016-Jun-26 13:22N 46°39' E 031°01'0 0.0
2016-Jun-26 12:33N 46°39' E 031°01'0 0.0
2016-Jun-26 11:33N 46°39' E 031°01'0 0.0
2016-Jun-26 10:32N 46°39' E 031°01'0 0.0
2016-Jun-26 09:33N 46°39' E 031°01'0 0.0
2016-Jun-26 08:33N 46°39' E 031°01'0 0.0
2016-Jun-26 07:34N 46°39' E 031°01'0 0.0
2016-Jun-26 06:33N 46°39' E 031°01'0 0.0
2016-Jun-26 05:34N 46°39' E 031°01'0 0.0
2016-Jun-26 04:33N 46°39' E 031°01'5 4.5
2016-Jun-26 03:34N 46°35' E 031°01'7 7.4
2016-Jun-26 02:33N 46°28' E 030°57'1211.6
2016-Jun-26 01:33N 46°16' E 030°58'1413.7
2016-Jun-26 00:34N 46°06' E 031°12'1413.9
2016-Jun-25 23:33N 45°53' E 031°09'1414.3
2016-Jun-25 22:33N 45°38' E 031°06'1414.4
2016-Jun-25 21:34N 45°24' E 031°03'27813.2
2016-Jun-25 00:28N 41°01' E 028°60'9 9.8
2016-Jun-24 23:32N 40°53' E 028°54'6 1.4
2016-Jun-24 19:11N 40°47' E 028°52'1 0.8
2016-Jun-24 18:29N 40°47' E 028°52'12 0.4
2016-Jun-23 13:31N 40°56' E 028°41'3 2.4
2016-Jun-23 12:22N 40°53' E 028°40'6 0.8
2016-Jun-23 04:29N 40°47' E 028°43'1111.1
2016-Jun-23 03:33N 40°46' E 028°57'1111.6
2016-Jun-23 02:33N 40°45' E 029°12'1111.3
2016-Jun-23 01:33N 40°45' E 029°27'8 0.7
2016-Jun-22 13:07N 40°45' E 029°38'710.5
2016-Jun-22 12:29N 40°45' E 029°30'1010.9
2016-Jun-22 11:33N 40°43' E 029°16'1211.3
2016-Jun-22 10:29N 40°41' E 029°01'30011.9
2016-Jun-21 09:19N 37°27' E 024°06'1315.4
2016-Jun-21 08:30N 37°16' E 023°59'1515.6
2016-Jun-21 07:33N 37°03' E 023°50'5117.1
2016-Jun-21 04:33N 36°15' E 023°29'41113.7
2016-Jun-19 22:30N 35°38' E 015°04'7 7.4
2016-Jun-19 21:33N 35°38' E 014°55'2 2.1
2016-Jun-19 20:33N 35°39' E 014°53'2 2.3
2016-Jun-19 19:31N 35°41' E 014°51'8 8.2
2016-Jun-19 18:33N 35°48' E 014°45'8 7.8
2016-Jun-19 17:33N 35°47' E 014°36'3 1.1
2016-Jun-19 14:32N 35°49' E 014°32'0 0.0
2016-Jun-19 04:29N 35°49' E 014°32'1 0.2
2016-Jun-18 22:22N 35°49' E 014°34'0 0.1
2016-Jun-18 21:32N 35°49' E 014°34'3 2.7
2016-Jun-18 20:33N 35°46' E 014°32'1010.4
2016-Jun-18 19:33N 35°47' E 014°20'1414.3
2016-Jun-18 18:33N 35°55' E 014°05'1414.4
2016-Jun-18 17:34N 36°03' E 013°50'1514.6
2016-Jun-18 16:33N 36°11' E 013°36'1414.4
2016-Jun-18 15:33N 36°20' E 013°21'1414.3
2016-Jun-18 14:33N 36°28' E 013°07'14714.4
2016-Jun-18 04:21N 37°33' E 010°22'1214.5
2016-Jun-18 03:32N 37°34' E 010°07'6514.7
2016-Jun-17 23:06N 37°20' E 008°47'  

Dump ship's entire track history